Göttingen, Allemagne

11:22 CET le 27 janvier 2015 (GMT +0100)
göttingen,de | Change Station
CLOSE
Current Station
Stations météorologiques personnelles
Location: Göttingen, NIEDERSACHSEN
Altitude: 741 ft
Stations météo à proximité

Alt. 741 ft 51.53 °N, 9.86 °E | Updated 14 seconds ago

Mostly Cloudy
Nuageux
38.1 ° F
Paraît 38 ° F
N
1.3
Vent Variable Vent de Ouest
Gusts 2.5 mph

Aujourd'hui
Haut(e) -- | Bas -- ° F
--% Risque de précip.
Hier
Haut(e) -- | Bas -- ° F
Precip. -- pouce
8:06 AM 5:00 PM
Premier quartier, 52% visible
Pression 30.09 pouce
Visibilité 6.2 Miles terrestres
Nuages Nuages épars 600 ft
Nuageux 1700 ft
Refroidissement éolien 38 ° F
Point de rosée 34 ° F
Humidité 85%
Précipitations 0.07 pouce
Profondeur de la couche neigeuse Non disponible.
UV 1.0 sur 12
Pollen Non disponible.
Qualité de l'air Non disponible.
Flu Activity Non disponible.
METAR EDVK 271020Z 27010KT 9999 SCT006 BKN017 01/00 Q1019 RMK ATIS L

More Conditions Fewer Conditions

Pression 30.09 pouce
Visibilité 6.2 Miles terrestres
Nuages Nuages épars 600 ft
Nuageux 1700 ft
Refroidissement éolien 38 ° F
Point de rosée 34 ° F
Humidité 85%
Précipitations 0.07 pouce
Profondeur de la couche neigeuse Non disponible.
UV 1.0 sur 12
Pollen Non disponible.
Qualité de l'air Non disponible.
Flu Activity Non disponible.
METAR EDVK 271020Z 27010KT 9999 SCT006 BKN017 01/00 Q1019 RMK ATIS L

More Conditions Fewer Conditions

10-Day Weather Forecast

Almanac

Astronomie

Jan. 27, 2015 Lever Coucher
Temps réel
Crépuscule civil
Crépuscule nautique
Crépuscule astronomique
Lune
Durée de lumière visible
Longueur du jour
Tomorrow will be .
, % of the Moon is Illuminated

Extrêmes aujourd'hui

Country Highs Country Lows

Community

WunderPhotos

Upload Photos

1,790,562 Photos téléchargées !

WunderBlogs® & News

Nearby

Qualité de l'air

  Qualité de l'air Indice de la qualité de l'air Polluant
Not available.

Épaisseur de neige

Station Depth Altitude

Activité sismique

Ville Distance Mag. Time & Date
Minimum magnitude displayed is 2.5.

Températures des eaux côtières

Lieu Température

Stations météo à proximité